Página principal
METAR-TAF:

METAR-TAF

Aeroportos :

Caiena, Guiana Francesa

Aeroporto de Caiena-Rochambeau

latitude: 04-50N, longitude: 052-22W, altura: 105 m

Observação actual do tempo

O boletim foi feito há 29 minutos, às 05:30 UTC
Vento 1 kt com direcção variável
Temperatura 25°C
Humidade 94%
Pressão 1010 hPa
Visibilidade 10 km ou mais
sem nuvens abaixo de 1500 metros e sem cumulonimbus

METAR: SOCA 200530Z AUTO VRB01KT CAVOK 25/24 Q1010 NOSIG

Hora: 02:59 (05:59 UTC)

Previsão

O boletim foi feito há 59 minutos, às 05:00 UTC
Previsão válida de 20 às 06 UTC a 21 às 06 UTC
Vento 3 kt com direcção variável
Visibilidade 10 km ou mais
sem nuvens abaixo de 1500 metros e sem cumulonimbus
A partir de 20 às 1200 UTC
Vento 10 kt de este
Visibilidade 10 km ou mais
Nuvens dispersasa uma altura de 3000 ft

TAF: SOCA 200500Z 2006/2106 VRB03KT CAVOK FM201200 08010KT 9999 SCT030

Observações e previsões do tempo de mais de 4000 aeroportos (mensagens METAR e TAF).

As estações disponíveis são os pontos amarelos e vermelhos sobre o mapa.

Mova o rato sobre o mapa para ver o nome da estação.

Depois clique no ponto para visualizar as observações e previsões meteorológicas.

Para alterar o mapa : clique nos botões verdes com uma cruz preta para aumentar o zoom; no botão verde com uma pitada de zoom; ou nas setas verdes para mapas adjacentes.


METAR-TAF: